sensor_id;sensor_type;location;lat;lon;timestamp;P1;durP1;ratioP1;P2;durP2;ratioP2
49834;SDS011;35729;52.090;13.162;2023-11-22T00:02:25;20.92;;;12.40;;
49834;SDS011;35729;52.090;13.162;2023-11-22T00:04:54;19.45;;;11.05;;
49834;SDS011;35729;52.090;13.162;2023-11-22T00:07:23;18.05;;;11.90;;
49834;SDS011;35729;52.090;13.162;2023-11-22T00:09:56;16.83;;;10.88;;
49834;SDS011;35729;52.090;13.162;2023-11-22T00:12:26;16.95;;;11.10;;
49834;SDS011;35729;52.090;13.162;2023-11-22T00:15:01;19.77;;;11.93;;
49834;SDS011;35729;52.090;13.162;2023-11-22T00:17:30;20.80;;;12.82;;
49834;SDS011;35729;52.090;13.162;2023-11-22T00:19:58;18.52;;;11.65;;
49834;SDS011;35729;52.090;13.162;2023-11-22T00:22:28;18.65;;;11.65;;
49834;SDS011;35729;52.090;13.162;2023-11-22T00:25:00;17.67;;;11.35;;
49834;SDS011;35729;52.090;13.162;2023-11-22T00:27:29;19.92;;;11.15;;
49834;SDS011;35729;52.090;13.162;2023-11-22T00:29:57;17.83;;;11.75;;
49834;SDS011;35729;52.090;13.162;2023-11-22T00:32:26;16.23;;;10.68;;
49834;SDS011;35729;52.090;13.162;2023-11-22T00:34:54;16.42;;;10.60;;
49834;SDS011;35729;52.090;13.162;2023-11-22T00:37:23;18.70;;;11.15;;
49834;SDS011;35729;52.090;13.162;2023-11-22T00:39:51;17.05;;;11.05;;
49834;SDS011;35729;52.090;13.162;2023-11-22T00:42:22;19.45;;;11.63;;
49834;SDS011;35729;52.090;13.162;2023-11-22T00:44:51;19.35;;;11.93;;
49834;SDS011;35729;52.090;13.162;2023-11-22T00:47:20;16.08;;;11.02;;
49834;SDS011;35729;52.090;13.162;2023-11-22T00:49:49;16.80;;;10.80;;
49834;SDS011;35729;52.090;13.162;2023-11-22T00:52:17;17.85;;;10.60;;
49834;SDS011;35729;52.090;13.162;2023-11-22T00:54:46;19.42;;;11.57;;
49834;SDS011;35729;52.090;13.162;2023-11-22T00:57:15;18.40;;;11.07;;
49834;SDS011;35729;52.090;13.162;2023-11-22T00:59:46;17.15;;;9.63;;
49834;SDS011;35729;52.090;13.162;2023-11-22T01:02:15;19.73;;;10.85;;
49834;SDS011;35729;52.090;13.162;2023-11-22T01:04:43;17.70;;;11.20;;
49834;SDS011;35729;52.090;13.162;2023-11-22T01:07:12;19.60;;;11.80;;
49834;SDS011;35729;52.090;13.162;2023-11-22T01:09:40;18.10;;;10.90;;
49834;SDS011;35729;52.090;13.162;2023-11-22T01:12:08;16.80;;;11.55;;
49834;SDS011;35729;52.090;13.162;2023-11-22T01:14:38;18.17;;;10.82;;
49834;SDS011;35729;52.090;13.162;2023-11-22T01:17:09;15.77;;;10.45;;
49834;SDS011;35729;52.090;13.162;2023-11-22T01:19:37;18.13;;;10.90;;
49834;SDS011;35729;52.090;13.162;2023-11-22T01:22:06;17.60;;;9.82;;
49834;SDS011;35729;52.090;13.162;2023-11-22T01:24:34;18.00;;;10.52;;
49834;SDS011;35729;52.090;13.162;2023-11-22T01:27:03;15.55;;;9.85;;
49834;SDS011;35729;52.090;13.162;2023-11-22T01:29:39;19.70;;;10.55;;
49834;SDS011;35729;52.090;13.162;2023-11-22T01:32:10;17.15;;;10.30;;
49834;SDS011;35729;52.090;13.162;2023-11-22T01:34:38;16.52;;;10.43;;
49834;SDS011;35729;52.090;13.162;2023-11-22T01:37:07;17.92;;;11.15;;
49834;SDS011;35729;52.090;13.162;2023-11-22T01:39:38;14.40;;;10.35;;
49834;SDS011;35729;52.090;13.162;2023-11-22T01:42:08;17.15;;;9.93;;
49834;SDS011;35729;52.090;13.162;2023-11-22T01:44:37;14.95;;;9.65;;
49834;SDS011;35729;52.090;13.162;2023-11-22T01:47:07;13.15;;;9.25;;
49834;SDS011;35729;52.090;13.162;2023-11-22T01:49:38;16.48;;;9.40;;
49834;SDS011;35729;52.090;13.162;2023-11-22T01:52:06;16.40;;;9.82;;
49834;SDS011;35729;52.090;13.162;2023-11-22T01:54:35;16.83;;;8.90;;
49834;SDS011;35729;52.090;13.162;2023-11-22T01:57:05;13.43;;;8.52;;
49834;SDS011;35729;52.090;13.162;2023-11-22T01:59:35;15.55;;;8.95;;
49834;SDS011;35729;52.090;13.162;2023-11-22T02:02:03;15.82;;;9.40;;
49834;SDS011;35729;52.090;13.162;2023-11-22T02:04:34;13.48;;;8.95;;
49834;SDS011;35729;52.090;13.162;2023-11-22T02:07:00;13.43;;;7.90;;
49834;SDS011;35729;52.090;13.162;2023-11-22T02:09:29;14.00;;;8.57;;
49834;SDS011;35729;52.090;13.162;2023-11-22T02:11:57;13.77;;;8.20;;
49834;SDS011;35729;52.090;13.162;2023-11-22T02:14:26;13.20;;;8.30;;
49834;SDS011;35729;52.090;13.162;2023-11-22T02:16:54;13.30;;;7.75;;
49834;SDS011;35729;52.090;13.162;2023-11-22T02:19:24;11.20;;;7.55;;
49834;SDS011;35729;52.090;13.162;2023-11-22T02:21:55;12.35;;;8.05;;
49834;SDS011;35729;52.090;13.162;2023-11-22T02:24:26;14.02;;;7.15;;
49834;SDS011;35729;52.090;13.162;2023-11-22T02:27:17;13.35;;;8.18;;
49834;SDS011;35729;52.090;13.162;2023-11-22T02:29:45;12.48;;;7.60;;
49834;SDS011;35729;52.090;13.162;2023-11-22T02:32:15;11.90;;;8.05;;
49834;SDS011;35729;52.090;13.162;2023-11-22T02:34:44;12.45;;;8.07;;
49834;SDS011;35729;52.090;13.162;2023-11-22T02:37:25;11.43;;;7.22;;
49834;SDS011;35729;52.090;13.162;2023-11-22T02:39:57;10.50;;;7.63;;
49834;SDS011;35729;52.090;13.162;2023-11-22T02:42:33;8.95;;;7.47;;
49834;SDS011;35729;52.090;13.162;2023-11-22T02:45:02;12.15;;;7.32;;
49834;SDS011;35729;52.090;13.162;2023-11-22T02:47:31;12.95;;;7.68;;
49834;SDS011;35729;52.090;13.162;2023-11-22T02:50:00;14.85;;;8.23;;
49834;SDS011;35729;52.090;13.162;2023-11-22T02:52:30;10.23;;;6.63;;
49834;SDS011;35729;52.090;13.162;2023-11-22T02:55:01;11.45;;;7.65;;
49834;SDS011;35729;52.090;13.162;2023-11-22T02:57:30;11.40;;;7.00;;
49834;SDS011;35729;52.090;13.162;2023-11-22T02:59:59;11.10;;;7.20;;
49834;SDS011;35729;52.090;13.162;2023-11-22T03:02:29;16.05;;;8.23;;
49834;SDS011;35729;52.090;13.162;2023-11-22T03:04:57;11.00;;;7.50;;
49834;SDS011;35729;52.090;13.162;2023-11-22T03:07:26;12.27;;;7.45;;
49834;SDS011;35729;52.090;13.162;2023-11-22T03:09:55;12.35;;;7.55;;
49834;SDS011;35729;52.090;13.162;2023-11-22T03:12:28;11.43;;;7.68;;
49834;SDS011;35729;52.090;13.162;2023-11-22T03:14:56;12.75;;;6.97;;
49834;SDS011;35729;52.090;13.162;2023-11-22T03:17:27;12.18;;;7.47;;
49834;SDS011;35729;52.090;13.162;2023-11-22T03:19:56;13.98;;;7.57;;
49834;SDS011;35729;52.090;13.162;2023-11-22T03:22:26;10.30;;;7.28;;
49834;SDS011;35729;52.090;13.162;2023-11-22T03:24:55;13.43;;;6.95;;
49834;SDS011;35729;52.090;13.162;2023-11-22T03:27:28;10.68;;;7.03;;
49834;SDS011;35729;52.090;13.162;2023-11-22T03:29:56;11.50;;;7.43;;
49834;SDS011;35729;52.090;13.162;2023-11-22T03:32:25;12.02;;;6.47;;
49834;SDS011;35729;52.090;13.162;2023-11-22T03:34:54;10.43;;;7.15;;
49834;SDS011;35729;52.090;13.162;2023-11-22T03:37:22;9.85;;;6.70;;
49834;SDS011;35729;52.090;13.162;2023-11-22T03:39:57;8.95;;;6.32;;
49834;SDS011;35729;52.090;13.162;2023-11-22T03:42:28;11.90;;;7.43;;
49834;SDS011;35729;52.090;13.162;2023-11-22T03:44:57;10.93;;;6.80;;
49834;SDS011;35729;52.090;13.162;2023-11-22T03:47:26;11.15;;;7.65;;
49834;SDS011;35729;52.090;13.162;2023-11-22T03:49:54;10.82;;;6.47;;
49834;SDS011;35729;52.090;13.162;2023-11-22T03:52:23;13.98;;;6.75;;
49834;SDS011;35729;52.090;13.162;2023-11-22T03:54:52;11.15;;;6.82;;
49834;SDS011;35729;52.090;13.162;2023-11-22T03:57:22;10.55;;;6.68;;
49834;SDS011;35729;52.090;13.162;2023-11-22T03:59:53;10.93;;;6.65;;
49834;SDS011;35729;52.090;13.162;2023-11-22T04:02:27;12.80;;;7.63;;
49834;SDS011;35729;52.090;13.162;2023-11-22T04:04:56;11.15;;;7.13;;
49834;SDS011;35729;52.090;13.162;2023-11-22T04:07:24;11.10;;;6.88;;
49834;SDS011;35729;52.090;13.162;2023-11-22T04:09:54;10.93;;;6.93;;
49834;SDS011;35729;52.090;13.162;2023-11-22T04:12:22;11.98;;;8.23;;
49834;SDS011;35729;52.090;13.162;2023-11-22T04:14:53;11.98;;;7.45;;
49834;SDS011;35729;52.090;13.162;2023-11-22T04:17:22;13.43;;;7.57;;
49834;SDS011;35729;52.090;13.162;2023-11-22T04:19:50;9.90;;;6.68;;
49834;SDS011;35729;52.090;13.162;2023-11-22T04:22:18;9.82;;;7.30;;
49834;SDS011;35729;52.090;13.162;2023-11-22T04:24:47;12.18;;;7.57;;
49834;SDS011;35729;52.090;13.162;2023-11-22T04:27:15;10.02;;;6.65;;
49834;SDS011;35729;52.090;13.162;2023-11-22T04:29:44;11.07;;;7.30;;
49834;SDS011;35729;52.090;13.162;2023-11-22T04:32:15;9.63;;;6.82;;
49834;SDS011;35729;52.090;13.162;2023-11-22T04:34:43;9.82;;;7.15;;
49834;SDS011;35729;52.090;13.162;2023-11-22T04:37:12;10.18;;;6.97;;
49834;SDS011;35729;52.090;13.162;2023-11-22T04:39:40;9.43;;;6.43;;
49834;SDS011;35729;52.090;13.162;2023-11-22T04:42:09;11.98;;;7.10;;
49834;SDS011;35729;52.090;13.162;2023-11-22T04:44:37;9.65;;;6.93;;
49834;SDS011;35729;52.090;13.162;2023-11-22T04:47:15;9.32;;;6.55;;
49834;SDS011;35729;52.090;13.162;2023-11-22T04:49:43;10.68;;;7.45;;
49834;SDS011;35729;52.090;13.162;2023-11-22T04:52:11;10.88;;;6.70;;
49834;SDS011;35729;52.090;13.162;2023-11-22T04:54:40;10.85;;;7.55;;
49834;SDS011;35729;52.090;13.162;2023-11-22T04:57:09;11.93;;;7.88;;
49834;SDS011;35729;52.090;13.162;2023-11-22T04:59:38;11.40;;;6.95;;
49834;SDS011;35729;52.090;13.162;2023-11-22T05:02:07;9.90;;;6.15;;
49834;SDS011;35729;52.090;13.162;2023-11-22T05:04:39;12.45;;;7.65;;
49834;SDS011;35729;52.090;13.162;2023-11-22T05:07:07;11.10;;;7.28;;
49834;SDS011;35729;52.090;13.162;2023-11-22T05:09:36;10.05;;;6.32;;
49834;SDS011;35729;52.090;13.162;2023-11-22T05:12:05;11.13;;;7.40;;
49834;SDS011;35729;52.090;13.162;2023-11-22T05:14:34;11.25;;;6.55;;
49834;SDS011;35729;52.090;13.162;2023-11-22T05:17:03;10.35;;;6.93;;
49834;SDS011;35729;52.090;13.162;2023-11-22T05:19:32;10.02;;;6.75;;
49834;SDS011;35729;52.090;13.162;2023-11-22T05:22:03;14.10;;;7.82;;
49834;SDS011;35729;52.090;13.162;2023-11-22T05:24:32;9.35;;;7.20;;
49834;SDS011;35729;52.090;13.162;2023-11-22T05:27:04;10.38;;;7.50;;
49834;SDS011;35729;52.090;13.162;2023-11-22T05:29:32;10.77;;;7.55;;
49834;SDS011;35729;52.090;13.162;2023-11-22T05:32:02;11.35;;;7.90;;
49834;SDS011;35729;52.090;13.162;2023-11-22T05:34:31;14.30;;;7.35;;
49834;SDS011;35729;52.090;13.162;2023-11-22T05:37:03;13.32;;;7.50;;
49834;SDS011;35729;52.090;13.162;2023-11-22T05:39:32;11.63;;;8.27;;
49834;SDS011;35729;52.090;13.162;2023-11-22T05:42:01;10.15;;;7.63;;
49834;SDS011;35729;52.090;13.162;2023-11-22T05:44:30;11.90;;;7.80;;
49834;SDS011;35729;52.090;13.162;2023-11-22T05:46:58;13.98;;;8.77;;
49834;SDS011;35729;52.090;13.162;2023-11-22T05:49:27;14.50;;;8.77;;
49834;SDS011;35729;52.090;13.162;2023-11-22T05:51:56;18.08;;;8.80;;
49834;SDS011;35729;52.090;13.162;2023-11-22T05:54:27;15.95;;;8.50;;
49834;SDS011;35729;52.090;13.162;2023-11-22T05:56:57;16.25;;;9.57;;
49834;SDS011;35729;52.090;13.162;2023-11-22T05:59:25;13.85;;;8.70;;
49834;SDS011;35729;52.090;13.162;2023-11-22T06:01:54;16.58;;;11.10;;
49834;SDS011;35729;52.090;13.162;2023-11-22T06:04:22;14.40;;;9.88;;
49834;SDS011;35729;52.090;13.162;2023-11-22T06:06:51;13.98;;;9.07;;
49834;SDS011;35729;52.090;13.162;2023-11-22T06:09:19;19.10;;;8.32;;
49834;SDS011;35729;52.090;13.162;2023-11-22T06:11:50;10.68;;;7.45;;
49834;SDS011;35729;52.090;13.162;2023-11-22T06:14:20;15.05;;;8.77;;
49834;SDS011;35729;52.090;13.162;2023-11-22T06:16:48;14.18;;;8.65;;
49834;SDS011;35729;52.090;13.162;2023-11-22T06:19:16;22.33;;;11.55;;
49834;SDS011;35729;52.090;13.162;2023-11-22T06:21:45;25.90;;;11.85;;
49834;SDS011;35729;52.090;13.162;2023-11-22T06:24:13;18.98;;;10.63;;
49834;SDS011;35729;52.090;13.162;2023-11-22T06:26:45;18.52;;;10.18;;
49834;SDS011;35729;52.090;13.162;2023-11-22T06:29:17;17.60;;;9.88;;
49834;SDS011;35729;52.090;13.162;2023-11-22T06:31:46;13.07;;;8.60;;
49834;SDS011;35729;52.090;13.162;2023-11-22T06:34:14;13.80;;;8.57;;
49834;SDS011;35729;52.090;13.162;2023-11-22T06:36:43;14.82;;;9.07;;
49834;SDS011;35729;52.090;13.162;2023-11-22T06:39:11;16.92;;;9.30;;
49834;SDS011;35729;52.090;13.162;2023-11-22T06:41:40;12.30;;;8.45;;
49834;SDS011;35729;52.090;13.162;2023-11-22T06:44:09;13.63;;;9.43;;
49834;SDS011;35729;52.090;13.162;2023-11-22T06:46:40;13.90;;;9.82;;
49834;SDS011;35729;52.090;13.162;2023-11-22T06:49:09;15.75;;;9.70;;
49834;SDS011;35729;52.090;13.162;2023-11-22T06:51:37;18.58;;;11.18;;
49834;SDS011;35729;52.090;13.162;2023-11-22T06:54:06;13.80;;;9.48;;
49834;SDS011;35729;52.090;13.162;2023-11-22T06:56:35;13.25;;;8.85;;
49834;SDS011;35729;52.090;13.162;2023-11-22T06:59:04;22.67;;;14.27;;
49834;SDS011;35729;52.090;13.162;2023-11-22T07:01:32;23.85;;;17.45;;
49834;SDS011;35729;52.090;13.162;2023-11-22T07:04:03;19.23;;;13.27;;
49834;SDS011;35729;52.090;13.162;2023-11-22T07:06:32;19.98;;;14.20;;
49834;SDS011;35729;52.090;13.162;2023-11-22T07:09:02;15.30;;;10.95;;
49834;SDS011;35729;52.090;13.162;2023-11-22T07:11:34;16.50;;;10.40;;
49834;SDS011;35729;52.090;13.162;2023-11-22T07:14:03;14.15;;;9.68;;
49834;SDS011;35729;52.090;13.162;2023-11-22T07:16:31;11.63;;;7.85;;
49834;SDS011;35729;52.090;13.162;2023-11-22T07:19:00;14.20;;;9.57;;
49834;SDS011;35729;52.090;13.162;2023-11-22T07:21:34;15.25;;;9.80;;
49834;SDS011;35729;52.090;13.162;2023-11-22T07:24:03;15.18;;;9.93;;
49834;SDS011;35729;52.090;13.162;2023-11-22T07:26:34;14.23;;;8.80;;
49834;SDS011;35729;52.090;13.162;2023-11-22T07:29:08;17.25;;;10.45;;
49834;SDS011;35729;52.090;13.162;2023-11-22T07:31:43;19.98;;;10.60;;
49834;SDS011;35729;52.090;13.162;2023-11-22T07:34:12;16.42;;;8.82;;
49834;SDS011;35729;52.090;13.162;2023-11-22T07:36:43;14.10;;;8.98;;
49834;SDS011;35729;52.090;13.162;2023-11-22T07:39:12;16.10;;;8.82;;
49834;SDS011;35729;52.090;13.162;2023-11-22T07:41:44;13.18;;;8.48;;
49834;SDS011;35729;52.090;13.162;2023-11-22T07:44:14;14.85;;;8.57;;
49834;SDS011;35729;52.090;13.162;2023-11-22T07:46:43;15.52;;;10.13;;
49834;SDS011;35729;52.090;13.162;2023-11-22T07:49:11;13.65;;;8.52;;
49834;SDS011;35729;52.090;13.162;2023-11-22T07:51:40;15.30;;;9.23;;
49834;SDS011;35729;52.090;13.162;2023-11-22T07:54:12;13.77;;;8.45;;
49834;SDS011;35729;52.090;13.162;2023-11-22T07:56:41;13.65;;;8.98;;
49834;SDS011;35729;52.090;13.162;2023-11-22T07:59:12;12.35;;;8.23;;
49834;SDS011;35729;52.090;13.162;2023-11-22T08:01:41;14.40;;;10.05;;
49834;SDS011;35729;52.090;13.162;2023-11-22T08:04:13;12.50;;;8.18;;
49834;SDS011;35729;52.090;13.162;2023-11-22T08:06:41;13.68;;;9.20;;
49834;SDS011;35729;52.090;13.162;2023-11-22T08:09:14;12.73;;;8.30;;
49834;SDS011;35729;52.090;13.162;2023-11-22T08:11:44;12.18;;;8.93;;
49834;SDS011;35729;52.090;13.162;2023-11-22T08:14:13;13.15;;;8.38;;
49834;SDS011;35729;52.090;13.162;2023-11-22T08:16:42;12.88;;;8.18;;
49834;SDS011;35729;52.090;13.162;2023-11-22T08:19:11;10.07;;;7.50;;
49834;SDS011;35729;52.090;13.162;2023-11-22T08:21:39;15.30;;;8.40;;
49834;SDS011;35729;52.090;13.162;2023-11-22T08:24:08;13.18;;;8.63;;
49834;SDS011;35729;52.090;13.162;2023-11-22T08:26:40;13.10;;;8.48;;
49834;SDS011;35729;52.090;13.162;2023-11-22T08:29:09;11.88;;;7.68;;
49834;SDS011;35729;52.090;13.162;2023-11-22T08:31:37;11.80;;;7.65;;
49834;SDS011;35729;52.090;13.162;2023-11-22T08:34:05;10.38;;;7.60;;
49834;SDS011;35729;52.090;13.162;2023-11-22T08:36:36;14.48;;;9.18;;
49834;SDS011;35729;52.090;13.162;2023-11-22T08:39:05;13.57;;;8.25;;
49834;SDS011;35729;52.090;13.162;2023-11-22T08:41:33;11.57;;;7.65;;
49834;SDS011;35729;52.090;13.162;2023-11-22T08:44:05;10.07;;;7.13;;
49834;SDS011;35729;52.090;13.162;2023-11-22T08:46:34;10.18;;;6.63;;
49834;SDS011;35729;52.090;13.162;2023-11-22T08:49:02;13.30;;;7.97;;
49834;SDS011;35729;52.090;13.162;2023-11-22T08:51:31;13.35;;;8.20;;
49834;SDS011;35729;52.090;13.162;2023-11-22T08:54:00;9.93;;;6.07;;
49834;SDS011;35729;52.090;13.162;2023-11-22T08:56:29;10.45;;;7.03;;
49834;SDS011;35729;52.090;13.162;2023-11-22T08:59:00;13.10;;;8.05;;
49834;SDS011;35729;52.090;13.162;2023-11-22T09:01:33;11.73;;;6.82;;
49834;SDS011;35729;52.090;13.162;2023-11-22T09:04:01;12.13;;;7.40;;
49834;SDS011;35729;52.090;13.162;2023-11-22T09:06:30;13.82;;;7.22;;
49834;SDS011;35729;52.090;13.162;2023-11-22T09:08:59;11.30;;;6.97;;
49834;SDS011;35729;52.090;13.162;2023-11-22T09:11:28;10.98;;;7.20;;
49834;SDS011;35729;52.090;13.162;2023-11-22T09:13:59;10.35;;;7.07;;
49834;SDS011;35729;52.090;13.162;2023-11-22T09:16:36;13.13;;;8.02;;
49834;SDS011;35729;52.090;13.162;2023-11-22T09:19:05;13.13;;;8.40;;
49834;SDS011;35729;52.090;13.162;2023-11-22T09:21:34;10.18;;;6.63;;
49834;SDS011;35729;52.090;13.162;2023-11-22T09:24:02;13.40;;;7.78;;
49834;SDS011;35729;52.090;13.162;2023-11-22T09:26:31;13.68;;;7.75;;
49834;SDS011;35729;52.090;13.162;2023-11-22T09:29:00;13.82;;;7.40;;
49834;SDS011;35729;52.090;13.162;2023-11-22T09:31:26;11.55;;;7.28;;
49834;SDS011;35729;52.090;13.162;2023-11-22T09:33:57;9.80;;;7.40;;
49834;SDS011;35729;52.090;13.162;2023-11-22T09:36:26;13.27;;;8.32;;
49834;SDS011;35729;52.090;13.162;2023-11-22T09:39:02;11.57;;;7.72;;
49834;SDS011;35729;52.090;13.162;2023-11-22T09:41:37;11.15;;;7.35;;
49834;SDS011;35729;52.090;13.162;2023-11-22T09:44:06;12.80;;;7.70;;
49834;SDS011;35729;52.090;13.162;2023-11-22T09:46:36;12.73;;;7.68;;
49834;SDS011;35729;52.090;13.162;2023-11-22T09:49:08;12.65;;;7.78;;
49834;SDS011;35729;52.090;13.162;2023-11-22T09:51:42;15.48;;;9.13;;
49834;SDS011;35729;52.090;13.162;2023-11-22T09:54:12;10.85;;;7.75;;
49834;SDS011;35729;52.090;13.162;2023-11-22T09:56:42;15.23;;;8.65;;
49834;SDS011;35729;52.090;13.162;2023-11-22T09:59:15;11.80;;;8.50;;
49834;SDS011;35729;52.090;13.162;2023-11-22T10:01:48;12.70;;;7.85;;
49834;SDS011;35729;52.090;13.162;2023-11-22T10:04:20;11.57;;;7.60;;
49834;SDS011;35729;52.090;13.162;2023-11-22T10:06:50;11.60;;;7.18;;
49834;SDS011;35729;52.090;13.162;2023-11-22T10:09:19;10.85;;;7.50;;
49834;SDS011;35729;52.090;13.162;2023-11-22T10:11:49;14.63;;;8.02;;
49834;SDS011;35729;52.090;13.162;2023-11-22T10:14:22;15.07;;;8.27;;
49834;SDS011;35729;52.090;13.162;2023-11-22T10:16:58;12.73;;;8.13;;
49834;SDS011;35729;52.090;13.162;2023-11-22T10:19:30;12.82;;;8.68;;
49834;SDS011;35729;52.090;13.162;2023-11-22T10:22:02;12.55;;;7.55;;
49834;SDS011;35729;52.090;13.162;2023-11-22T10:24:31;13.23;;;7.97;;
49834;SDS011;35729;52.090;13.162;2023-11-22T10:27:01;10.95;;;7.47;;
49834;SDS011;35729;52.090;13.162;2023-11-22T10:29:31;11.32;;;7.63;;
49834;SDS011;35729;52.090;13.162;2023-11-22T10:32:01;12.38;;;7.65;;
49834;SDS011;35729;52.090;13.162;2023-11-22T10:34:35;10.27;;;6.80;;
49834;SDS011;35729;52.090;13.162;2023-11-22T10:37:04;10.73;;;7.45;;
49834;SDS011;35729;52.090;13.162;2023-11-22T10:39:34;12.10;;;7.65;;
49834;SDS011;35729;52.090;13.162;2023-11-22T10:42:05;12.75;;;7.88;;
49834;SDS011;35729;52.090;13.162;2023-11-22T10:44:35;9.65;;;7.10;;
49834;SDS011;35729;52.090;13.162;2023-11-22T10:47:05;9.75;;;7.00;;
49834;SDS011;35729;52.090;13.162;2023-11-22T10:49:38;13.23;;;7.68;;
49834;SDS011;35729;52.090;13.162;2023-11-22T10:52:07;9.70;;;6.63;;
49834;SDS011;35729;52.090;13.162;2023-11-22T10:54:40;13.10;;;7.55;;
49834;SDS011;35729;52.090;13.162;2023-11-22T10:57:12;10.48;;;6.43;;
49834;SDS011;35729;52.090;13.162;2023-11-22T10:59:43;9.88;;;6.93;;
49834;SDS011;35729;52.090;13.162;2023-11-22T11:02:19;14.15;;;8.27;;
49834;SDS011;35729;52.090;13.162;2023-11-22T11:04:55;13.55;;;7.75;;
49834;SDS011;35729;52.090;13.162;2023-11-22T11:07:32;9.50;;;6.78;;
49834;SDS011;35729;52.090;13.162;2023-11-22T11:10:08;8.98;;;6.70;;
49834;SDS011;35729;52.090;13.162;2023-11-22T11:12:38;9.57;;;6.95;;
49834;SDS011;35729;52.090;13.162;2023-11-22T11:15:06;10.18;;;7.13;;
49834;SDS011;35729;52.090;13.162;2023-11-22T11:17:36;9.85;;;6.65;;
49834;SDS011;35729;52.090;13.162;2023-11-22T11:20:08;9.77;;;6.97;;
49834;SDS011;35729;52.090;13.162;2023-11-22T11:25:07;9.20;;;6.55;;
49834;SDS011;35729;52.090;13.162;2023-11-22T11:27:36;8.90;;;5.68;;
49834;SDS011;35729;52.090;13.162;2023-11-22T11:33:03;10.45;;;5.85;;
49834;SDS011;35729;52.090;13.162;2023-11-22T11:35:40;8.73;;;5.80;;
49834;SDS011;35729;52.090;13.162;2023-11-22T11:38:11;12.00;;;6.95;;
49834;SDS011;35729;52.090;13.162;2023-11-22T11:40:40;10.88;;;7.45;;
49834;SDS011;35729;52.090;13.162;2023-11-22T11:43:10;9.30;;;6.43;;
49834;SDS011;35729;52.090;13.162;2023-11-22T11:45:40;37.40;;;20.20;;
49834;SDS011;35729;52.090;13.162;2023-11-22T11:48:11;13.40;;;8.48;;
49834;SDS011;35729;52.090;13.162;2023-11-22T11:50:43;16.98;;;8.57;;
49834;SDS011;35729;52.090;13.162;2023-11-22T11:53:11;11.85;;;7.07;;
49834;SDS011;35729;52.090;13.162;2023-11-22T11:55:40;10.57;;;7.55;;
49834;SDS011;35729;52.090;13.162;2023-11-22T11:58:10;11.10;;;7.30;;
49834;SDS011;35729;52.090;13.162;2023-11-22T12:00:40;13.23;;;7.95;;
49834;SDS011;35729;52.090;13.162;2023-11-22T12:03:08;11.52;;;7.40;;
49834;SDS011;35729;52.090;13.162;2023-11-22T12:05:37;12.13;;;7.80;;
49834;SDS011;35729;52.090;13.162;2023-11-22T12:08:09;11.38;;;7.20;;
49834;SDS011;35729;52.090;13.162;2023-11-22T12:10:40;8.38;;;6.72;;
49834;SDS011;35729;52.090;13.162;2023-11-22T12:13:09;15.63;;;10.60;;
49834;SDS011;35729;52.090;13.162;2023-11-22T12:15:37;11.00;;;7.55;;
49834;SDS011;35729;52.090;13.162;2023-11-22T12:18:06;12.23;;;7.40;;
49834;SDS011;35729;52.090;13.162;2023-11-22T12:20:34;11.45;;;7.47;;
49834;SDS011;35729;52.090;13.162;2023-11-22T12:23:03;12.02;;;7.47;;
49834;SDS011;35729;52.090;13.162;2023-11-22T12:25:34;10.43;;;7.63;;
49834;SDS011;35729;52.090;13.162;2023-11-22T12:28:03;11.85;;;7.57;;
49834;SDS011;35729;52.090;13.162;2023-11-22T12:30:32;11.63;;;7.88;;
49834;SDS011;35729;52.090;13.162;2023-11-22T12:33:02;14.07;;;8.35;;
49834;SDS011;35729;52.090;13.162;2023-11-22T12:35:32;12.95;;;8.02;;
49834;SDS011;35729;52.090;13.162;2023-11-22T12:38:02;12.90;;;8.75;;
49834;SDS011;35729;52.090;13.162;2023-11-22T12:40:36;15.27;;;8.95;;
49834;SDS011;35729;52.090;13.162;2023-11-22T12:43:04;11.63;;;7.57;;
49834;SDS011;35729;52.090;13.162;2023-11-22T12:45:33;10.50;;;7.03;;
49834;SDS011;35729;52.090;13.162;2023-11-22T12:53:17;18.42;;;8.88;;
49834;SDS011;35729;52.090;13.162;2023-11-22T12:55:49;13.90;;;8.63;;
49834;SDS011;35729;52.090;13.162;2023-11-22T12:58:19;13.30;;;7.53;;
49834;SDS011;35729;52.090;13.162;2023-11-22T13:00:49;11.00;;;7.30;;
49834;SDS011;35729;52.090;13.162;2023-11-22T13:03:23;12.40;;;7.45;;
49834;SDS011;35729;52.090;13.162;2023-11-22T13:05:49;10.70;;;6.97;;
49834;SDS011;35729;52.090;13.162;2023-11-22T13:08:18;10.80;;;6.88;;
49834;SDS011;35729;52.090;13.162;2023-11-22T13:10:52;13.15;;;7.30;;
49834;SDS011;35729;52.090;13.162;2023-11-22T13:13:22;9.18;;;6.00;;
49834;SDS011;35729;52.090;13.162;2023-11-22T13:15:52;11.68;;;7.88;;
49834;SDS011;35729;52.090;13.162;2023-11-22T13:18:20;10.98;;;6.93;;
49834;SDS011;35729;52.090;13.162;2023-11-22T13:20:50;9.80;;;7.03;;
49834;SDS011;35729;52.090;13.162;2023-11-22T13:23:18;8.25;;;6.50;;
49834;SDS011;35729;52.090;13.162;2023-11-22T13:25:47;10.57;;;7.43;;
49834;SDS011;35729;52.090;13.162;2023-11-22T13:28:18;11.52;;;8.05;;
49834;SDS011;35729;52.090;13.162;2023-11-22T13:30:52;9.77;;;7.40;;
49834;SDS011;35729;52.090;13.162;2023-11-22T13:33:21;10.85;;;7.03;;
49834;SDS011;35729;52.090;13.162;2023-11-22T13:35:50;11.55;;;7.30;;
49834;SDS011;35729;52.090;13.162;2023-11-22T13:38:18;22.38;;;8.55;;
49834;SDS011;35729;52.090;13.162;2023-11-22T13:40:47;9.45;;;6.90;;
49834;SDS011;35729;52.090;13.162;2023-11-22T13:43:19;10.73;;;7.25;;
49834;SDS011;35729;52.090;13.162;2023-11-22T13:45:47;9.77;;;6.68;;
49834;SDS011;35729;52.090;13.162;2023-11-22T13:48:15;10.38;;;7.35;;
49834;SDS011;35729;52.090;13.162;2023-11-22T13:50:44;9.63;;;6.95;;
49834;SDS011;35729;52.090;13.162;2023-11-22T13:53:12;11.30;;;8.05;;
49834;SDS011;35729;52.090;13.162;2023-11-22T13:55:42;11.43;;;7.93;;
49834;SDS011;35729;52.090;13.162;2023-11-22T13:58:11;11.48;;;8.05;;
49834;SDS011;35729;52.090;13.162;2023-11-22T14:00:42;15.20;;;8.85;;
49834;SDS011;35729;52.090;13.162;2023-11-22T14:03:13;10.35;;;7.07;;
49834;SDS011;35729;52.090;13.162;2023-11-22T14:05:41;11.48;;;8.50;;
49834;SDS011;35729;52.090;13.162;2023-11-22T14:08:10;12.35;;;8.60;;
49834;SDS011;35729;52.090;13.162;2023-11-22T14:10:40;11.18;;;7.55;;
49834;SDS011;35729;52.090;13.162;2023-11-22T14:13:10;10.75;;;8.07;;
49834;SDS011;35729;52.090;13.162;2023-11-22T14:15:38;11.95;;;8.75;;
49834;SDS011;35729;52.090;13.162;2023-11-22T14:18:09;13.98;;;9.00;;
49834;SDS011;35729;52.090;13.162;2023-11-22T14:20:38;39.58;;;20.58;;
49834;SDS011;35729;52.090;13.162;2023-11-22T14:23:06;12.18;;;8.65;;
49834;SDS011;35729;52.090;13.162;2023-11-22T14:25:34;12.73;;;8.80;;
49834;SDS011;35729;52.090;13.162;2023-11-22T14:28:03;12.30;;;8.75;;
49834;SDS011;35729;52.090;13.162;2023-11-22T14:30:31;12.20;;;8.55;;
49834;SDS011;35729;52.090;13.162;2023-11-22T14:33:01;15.15;;;9.70;;
49834;SDS011;35729;52.090;13.162;2023-11-22T14:35:34;14.73;;;10.13;;
49834;SDS011;35729;52.090;13.162;2023-11-22T14:38:03;14.43;;;9.07;;
49834;SDS011;35729;52.090;13.162;2023-11-22T14:40:32;12.15;;;9.20;;
49834;SDS011;35729;52.090;13.162;2023-11-22T14:42:58;13.23;;;9.38;;
49834;SDS011;35729;52.090;13.162;2023-11-22T14:45:27;12.52;;;8.77;;
49834;SDS011;35729;52.090;13.162;2023-11-22T14:47:57;12.40;;;8.88;;